Terminal Aerodrome Forecast
Issued by NWS

Home | Current Version | Previous Version | Text Only | Print | Product List | Glossary On
Versions: 1 2 3 4 5 6 7 8 9 10 11 12 13 14 15
362
FTUS45 KVEF 201127
TAFBIH
TAF
KBIH 201127Z 2012/2112 17007KT P6SM SCT040 BKN100
     FM201600 15014G22KT 4SM -SHSN BKN020 OVC040
     FM201900 16012G20KT P6SM -SHRA BKN010 OVC020
     FM210200 20007KT P6SM VCSH FEW020 SCT050=

USA.gov is the U.S. government's official web portal to all federal, state and local government web resources and services.